KTVF/TVF METAR and TAF weather

Enter ICAO airport designator
Station Type Date Time Source
KTVF METAR 2021/01/16 01:56 UTC NOAA

KTVF 160156Z AUTO 34017KT 10SM SCT012 OVC017 M09/M11 A2997 RMK AO2 SLPNO T10941111 FZRANO


Station Type Date Time Source
KTVF Decoded METAR 2021/01/16 01:56 UTC NOAA

Thief River Falls, Thief River Falls Regional Airport, MN, United States (KTVF) 48-04N 096-11W
Jan 15, 2021 - 08:56 PM EST / 2021.01.16 0156 UTC
Wind: from the NNW (340 degrees) at 20 MPH (17 KT):0
Visibility: 10 mile(s):0
Sky conditions: overcast
Temperature: 15.1 F (-9.4 C)
Windchill: -2 F (-19 C):1
Dew Point: 12.0 F (-11.1 C)
Relative Humidity: 87%
Pressure (altimeter): 29.97 in. Hg (1014 hPa)
ob: KTVF 160156Z AUTO 34017KT 10SM SCT012 OVC017 M09/M11 A2997 RMK AO2 SLPNO T10941111 FZRANO
cycle: 2

Station Type Date Time Source
KTVF TAF 2021/01/15 18:36 UTC NOAA

TAF KTVF 151734Z 1518/1618 34019G28KT P6SM -SN OVC009
FM152000 34017G25KT P6SM OVC012
FM160200 34010KT P6SM OVC015
FM161700 30006KT P6SM OVC022

Example: see airport list